sensor_id;sensor_type;location;lat;lon;timestamp;pressure;altitude;pressure_sealevel;temperature;humidity
12247;BME280;6186;52.022;4.692;2023-09-30T00:00:15;102559.84;;;14.73;100.00
12247;BME280;6186;52.022;4.692;2023-09-30T00:02:40;102563.38;;;14.74;100.00
12247;BME280;6186;52.022;4.692;2023-09-30T00:05:06;102560.69;;;14.75;100.00
12247;BME280;6186;52.022;4.692;2023-09-30T00:07:31;102566.88;;;14.74;100.00
12247;BME280;6186;52.022;4.692;2023-09-30T00:09:57;102566.03;;;14.74;100.00
12247;BME280;6186;52.022;4.692;2023-09-30T00:12:22;102566.88;;;14.76;100.00
12247;BME280;6186;52.022;4.692;2023-09-30T00:14:47;102566.03;;;14.71;100.00
12247;BME280;6186;52.022;4.692;2023-09-30T00:17:12;102566.06;;;14.69;100.00
12247;BME280;6186;52.022;4.692;2023-09-30T00:19:37;102573.22;;;14.64;100.00
12247;BME280;6186;52.022;4.692;2023-09-30T00:22:03;102575.81;;;14.67;100.00
12247;BME280;6186;52.022;4.692;2023-09-30T00:24:28;102579.38;;;14.66;100.00
12247;BME280;6186;52.022;4.692;2023-09-30T00:26:53;102565.28;;;14.64;100.00
12247;BME280;6186;52.022;4.692;2023-09-30T00:29:18;102574.09;;;14.63;100.00
12247;BME280;6186;52.022;4.692;2023-09-30T00:31:43;102576.72;;;14.68;100.00
12247;BME280;6186;52.022;4.692;2023-09-30T00:34:09;102567.00;;;14.65;100.00
12247;BME280;6186;52.022;4.692;2023-09-30T00:36:34;102570.50;;;14.69;100.00
12247;BME280;6186;52.022;4.692;2023-09-30T00:38:59;102565.19;;;14.69;100.00
12247;BME280;6186;52.022;4.692;2023-09-30T00:41:24;102562.66;;;14.63;100.00
12247;BME280;6186;52.022;4.692;2023-09-30T00:43:50;102568.00;;;14.58;100.00
12247;BME280;6186;52.022;4.692;2023-09-30T00:46:26;102578.56;;;14.61;100.00
12247;BME280;6186;52.022;4.692;2023-09-30T00:48:52;102589.16;;;14.61;100.00
12247;BME280;6186;52.022;4.692;2023-09-30T00:51:18;102594.59;;;14.52;100.00
12247;BME280;6186;52.022;4.692;2023-09-30T00:53:43;102589.28;;;14.55;100.00
12247;BME280;6186;52.022;4.692;2023-09-30T00:56:09;102595.44;;;14.54;100.00
12247;BME280;6186;52.022;4.692;2023-09-30T00:58:35;102591.94;;;14.52;100.00
12247;BME280;6186;52.022;4.692;2023-09-30T01:01:03;102593.72;;;14.50;100.00
12247;BME280;6186;52.022;4.692;2023-09-30T01:03:28;102599.03;;;14.50;100.00
12247;BME280;6186;52.022;4.692;2023-09-30T01:05:54;102605.25;;;14.49;100.00
12247;BME280;6186;52.022;4.692;2023-09-30T01:08:19;102618.50;;;14.49;100.00
12247;BME280;6186;52.022;4.692;2023-09-30T01:10:44;102626.47;;;14.48;100.00
12247;BME280;6186;52.022;4.692;2023-09-30T01:13:10;102617.63;;;14.47;100.00
12247;BME280;6186;52.022;4.692;2023-09-30T01:15:35;102615.88;;;14.45;100.00
12247;BME280;6186;52.022;4.692;2023-09-30T01:18:00;102609.81;;;14.38;100.00
12247;BME280;6186;52.022;4.692;2023-09-30T01:20:26;102613.28;;;14.40;100.00
12247;BME280;6186;52.022;4.692;2023-09-30T01:22:52;102618.63;;;14.39;100.00
12247;BME280;6186;52.022;4.692;2023-09-30T01:25:18;102621.28;;;14.37;100.00
12247;BME280;6186;52.022;4.692;2023-09-30T01:27:43;102615.13;;;14.35;100.00
12247;BME280;6186;52.022;4.692;2023-09-30T01:30:09;102612.47;;;14.35;100.00
12247;BME280;6186;52.022;4.692;2023-09-30T01:32:34;102602.78;;;14.34;100.00
12247;BME280;6186;52.022;4.692;2023-09-30T01:34:59;102604.59;;;14.32;100.00
12247;BME280;6186;52.022;4.692;2023-09-30T01:37:27;102605.47;;;14.30;100.00
12247;BME280;6186;52.022;4.692;2023-09-30T01:39:52;102609.94;;;14.28;100.00
12247;BME280;6186;52.022;4.692;2023-09-30T01:42:17;102596.72;;;14.22;100.00
12247;BME280;6186;52.022;4.692;2023-09-30T01:44:43;102597.59;;;14.22;100.00
12247;BME280;6186;52.022;4.692;2023-09-30T01:47:08;102602.00;;;14.22;100.00
12247;BME280;6186;52.022;4.692;2023-09-30T01:49:33;102606.47;;;14.21;100.00
12247;BME280;6186;52.022;4.692;2023-09-30T01:51:58;102616.13;;;14.22;100.00
12247;BME280;6186;52.022;4.692;2023-09-30T01:54:23;102615.25;;;14.22;100.00
12247;BME280;6186;52.022;4.692;2023-09-30T01:56:48;102617.03;;;14.23;100.00
12247;BME280;6186;52.022;4.692;2023-09-30T01:59:14;102609.97;;;14.20;100.00
12247;BME280;6186;52.022;4.692;2023-09-30T02:01:39;102610.84;;;14.22;100.00
12247;BME280;6186;52.022;4.692;2023-09-30T02:04:04;102612.63;;;14.23;100.00
12247;BME280;6186;52.022;4.692;2023-09-30T02:06:29;102611.75;;;14.21;100.00
12247;BME280;6186;52.022;4.692;2023-09-30T02:08:55;102619.66;;;14.24;100.00
12247;BME280;6186;52.022;4.692;2023-09-30T02:11:20;102619.63;;;14.26;100.00
12247;BME280;6186;52.022;4.692;2023-09-30T02:13:45;102623.16;;;14.28;100.00
12247;BME280;6186;52.022;4.692;2023-09-30T02:16:13;102606.47;;;14.21;100.00
12247;BME280;6186;52.022;4.692;2023-09-30T02:18:39;102609.09;;;14.19;100.00
12247;BME280;6186;52.022;4.692;2023-09-30T02:21:05;102608.16;;;14.27;100.00
12247;BME280;6186;52.022;4.692;2023-09-30T02:23:30;102592.25;;;14.28;100.00
12247;BME280;6186;52.022;4.692;2023-09-30T02:25:55;102594.91;;;14.28;100.00
12247;BME280;6186;52.022;4.692;2023-09-30T02:28:20;102605.47;;;14.30;100.00
12247;BME280;6186;52.022;4.692;2023-09-30T02:30:45;102600.19;;;14.30;100.00
12247;BME280;6186;52.022;4.692;2023-09-30T02:33:11;102601.03;;;14.33;100.00
12247;BME280;6186;52.022;4.692;2023-09-30T02:35:36;102594.84;;;14.34;100.00
12247;BME280;6186;52.022;4.692;2023-09-30T02:38:02;102587.81;;;14.32;100.00
12247;BME280;6186;52.022;4.692;2023-09-30T02:40:28;102593.06;;;14.36;100.00
12247;BME280;6186;52.022;4.692;2023-09-30T02:42:53;102589.53;;;14.36;100.00
12247;BME280;6186;52.022;4.692;2023-09-30T02:45:18;102588.63;;;14.35;100.00
12247;BME280;6186;52.022;4.692;2023-09-30T02:47:43;102588.69;;;14.32;100.00
12247;BME280;6186;52.022;4.692;2023-09-30T02:50:09;102602.78;;;14.34;100.00
12247;BME280;6186;52.022;4.692;2023-09-30T02:52:34;102600.13;;;14.36;100.00
12247;BME280;6186;52.022;4.692;2023-09-30T02:55:00;102590.50;;;14.27;100.00
12247;BME280;6186;52.022;4.692;2023-09-30T02:57:26;102589.59;;;14.30;100.00
12247;BME280;6186;52.022;4.692;2023-09-30T02:59:51;102593.91;;;14.38;100.00
12247;BME280;6186;52.022;4.692;2023-09-30T03:02:16;102585.97;;;14.37;100.00
12247;BME280;6186;52.022;4.692;2023-09-30T03:04:42;102566.66;;;14.26;100.00
12247;BME280;6186;52.022;4.692;2023-09-30T03:07:07;102580.63;;;14.40;100.00
12247;BME280;6186;52.022;4.692;2023-09-30T03:09:32;102591.19;;;14.43;100.00
12247;BME280;6186;52.022;4.692;2023-09-30T03:11:57;102591.19;;;14.43;100.00
12247;BME280;6186;52.022;4.692;2023-09-30T03:14:23;102597.38;;;14.43;100.00
12247;BME280;6186;52.022;4.692;2023-09-30T03:16:48;102599.97;;;14.46;100.00
12247;BME280;6186;52.022;4.692;2023-09-30T03:19:14;102590.28;;;14.45;100.00
12247;BME280;6186;52.022;4.692;2023-09-30T03:21:39;102592.00;;;14.49;100.00
12247;BME280;6186;52.022;4.692;2023-09-30T03:24:05;102592.84;;;14.50;100.00
12247;BME280;6186;52.022;4.692;2023-09-30T03:26:31;102590.19;;;14.51;100.00
12247;BME280;6186;52.022;4.692;2023-09-30T03:28:56;102595.50;;;14.51;100.00
12247;BME280;6186;52.022;4.692;2023-09-30T03:31:22;102593.72;;;14.50;100.00
12247;BME280;6186;52.022;4.692;2023-09-30T03:33:49;102584.97;;;14.45;100.00
12247;BME280;6186;52.022;4.692;2023-09-30T03:36:14;102594.63;;;14.51;100.00
12247;BME280;6186;52.022;4.692;2023-09-30T03:38:39;102586.66;;;14.51;100.00
12247;BME280;6186;52.022;4.692;2023-09-30T03:41:05;102586.69;;;14.49;100.00
12247;BME280;6186;52.022;4.692;2023-09-30T03:43:30;102590.19;;;14.51;100.00
12247;BME280;6186;52.022;4.692;2023-09-30T03:45:55;102587.59;;;14.47;100.00
12247;BME280;6186;52.022;4.692;2023-09-30T03:48:20;102599.03;;;14.50;100.00
12247;BME280;6186;52.022;4.692;2023-09-30T03:50:45;102590.22;;;14.48;100.00
12247;BME280;6186;52.022;4.692;2023-09-30T03:53:11;102576.16;;;14.43;100.00
12247;BME280;6186;52.022;4.692;2023-09-30T03:55:37;102593.72;;;14.50;100.00
12247;BME280;6186;52.022;4.692;2023-09-30T03:58:02;102588.47;;;14.49;100.00
12247;BME280;6186;52.022;4.692;2023-09-30T04:00:28;102577.84;;;14.49;100.00
12247;BME280;6186;52.022;4.692;2023-09-30T04:02:53;102593.72;;;14.50;100.00
12247;BME280;6186;52.022;4.692;2023-09-30T04:05:18;102599.03;;;14.50;100.00
12247;BME280;6186;52.022;4.692;2023-09-30T04:07:43;102596.47;;;14.44;100.00
12247;BME280;6186;52.022;4.692;2023-09-30T04:10:09;102603.47;;;14.48;100.00
12247;BME280;6186;52.022;4.692;2023-09-30T04:12:35;102576.31;;;14.34;100.00
12247;BME280;6186;52.022;4.692;2023-09-30T04:15:01;102585.81;;;14.49;100.00
12247;BME280;6186;52.022;4.692;2023-09-30T04:17:26;102579.69;;;14.45;100.00
12247;BME280;6186;52.022;4.692;2023-09-30T04:19:51;102592.03;;;14.48;100.00
12247;BME280;6186;52.022;4.692;2023-09-30T04:22:17;102591.13;;;14.47;100.00
12247;BME280;6186;52.022;4.692;2023-09-30T04:24:42;102586.72;;;14.46;100.00
12247;BME280;6186;52.022;4.692;2023-09-30T04:27:07;102592.88;;;14.48;100.00
12247;BME280;6186;52.022;4.692;2023-09-30T04:29:33;102606.97;;;14.50;100.00
12247;BME280;6186;52.022;4.692;2023-09-30T04:31:58;102610.53;;;14.49;100.00
12247;BME280;6186;52.022;4.692;2023-09-30T04:34:24;102610.56;;;14.48;100.00
12247;BME280;6186;52.022;4.692;2023-09-30T04:36:49;102599.09;;;14.47;100.00
12247;BME280;6186;52.022;4.692;2023-09-30T04:39:14;102603.53;;;14.42;100.00
12247;BME280;6186;52.022;4.692;2023-09-30T04:41:39;102607.03;;;14.47;100.00
12247;BME280;6186;52.022;4.692;2023-09-30T04:44:05;102613.22;;;14.46;100.00
12247;BME280;6186;52.022;4.692;2023-09-30T04:46:30;102612.34;;;14.44;100.00
12247;BME280;6186;52.022;4.692;2023-09-30T04:48:55;102620.31;;;14.46;100.00
12247;BME280;6186;52.022;4.692;2023-09-30T04:51:20;102621.16;;;14.46;100.00
12247;BME280;6186;52.022;4.692;2023-09-30T04:53:46;102610.66;;;14.42;100.00
12247;BME280;6186;52.022;4.692;2023-09-30T04:56:12;102613.22;;;14.46;100.00
12247;BME280;6186;52.022;4.692;2023-09-30T04:58:37;102615.88;;;14.46;100.00
12247;BME280;6186;52.022;4.692;2023-09-30T05:01:02;102610.59;;;14.45;100.00
12247;BME280;6186;52.022;4.692;2023-09-30T05:03:28;102620.34;;;14.43;100.00
12247;BME280;6186;52.022;4.692;2023-09-30T05:05:53;102614.19;;;14.39;100.00
12247;BME280;6186;52.022;4.692;2023-09-30T05:08:19;102619.50;;;14.39;100.00
12247;BME280;6186;52.022;4.692;2023-09-30T05:10:44;102618.63;;;14.37;100.00
12247;BME280;6186;52.022;4.692;2023-09-30T05:13:09;102610.69;;;14.37;100.00
12247;BME280;6186;52.022;4.692;2023-09-30T05:15:34;102621.28;;;14.37;100.00
12247;BME280;6186;52.022;4.692;2023-09-30T05:18:00;102624.88;;;14.33;100.00
12247;BME280;6186;52.022;4.692;2023-09-30T05:20:25;102631.94;;;14.34;100.00
12247;BME280;6186;52.022;4.692;2023-09-30T05:22:50;102623.16;;;14.31;100.00
12247;BME280;6186;52.022;4.692;2023-09-30T05:25:17;102621.38;;;14.30;100.00
12247;BME280;6186;52.022;4.692;2023-09-30T05:27:45;102624.91;;;14.30;100.00
12247;BME280;6186;52.022;4.692;2023-09-30T05:30:11;102621.41;;;14.27;100.00
12247;BME280;6186;52.022;4.692;2023-09-30T05:32:38;102615.19;;;14.29;100.00
12247;BME280;6186;52.022;4.692;2023-09-30T05:35:03;102625.81;;;14.28;100.00
12247;BME280;6186;52.022;4.692;2023-09-30T05:37:29;102632.88;;;14.27;100.00
12247;BME280;6186;52.022;4.692;2023-09-30T05:39:54;102614.41;;;14.19;100.00
12247;BME280;6186;52.022;4.692;2023-09-30T05:42:19;102627.59;;;14.24;100.00
12247;BME280;6186;52.022;4.692;2023-09-30T05:44:44;102624.09;;;14.22;100.00
12247;BME280;6186;52.022;4.692;2023-09-30T05:47:10;102625.00;;;14.18;100.00
12247;BME280;6186;52.022;4.692;2023-09-30T05:49:35;102638.22;;;14.19;100.00
12247;BME280;6186;52.022;4.692;2023-09-30T05:52:00;102637.41;;;14.14;100.00
12247;BME280;6186;52.022;4.692;2023-09-30T05:54:25;102647.97;;;14.17;100.00
12247;BME280;6186;52.022;4.692;2023-09-30T05:56:51;102637.41;;;14.16;100.00
12247;BME280;6186;52.022;4.692;2023-09-30T05:59:16;102636.53;;;14.14;100.00
12247;BME280;6186;52.022;4.692;2023-09-30T06:01:41;102641.84;;;14.14;100.00
12247;BME280;6186;52.022;4.692;2023-09-30T06:04:06;102639.22;;;14.11;100.00
12247;BME280;6186;52.022;4.692;2023-09-30T06:06:33;102626.00;;;14.08;100.00
12247;BME280;6186;52.022;4.692;2023-09-30T06:08:58;102636.53;;;14.14;100.00
12247;BME280;6186;52.022;4.692;2023-09-30T06:11:24;102638.31;;;14.15;100.00
12247;BME280;6186;52.022;4.692;2023-09-30T06:13:51;102645.31;;;14.17;100.00
12247;BME280;6186;52.022;4.692;2023-09-30T06:16:16;102640.03;;;14.19;100.00
12247;BME280;6186;52.022;4.692;2023-09-30T06:18:42;102646.16;;;14.23;100.00
12247;BME280;6186;52.022;4.692;2023-09-30T06:21:07;102645.22;;;14.25;100.00
12247;BME280;6186;52.022;4.692;2023-09-30T06:23:32;102641.69;;;14.26;100.00
12247;BME280;6186;52.022;4.692;2023-09-30T06:25:59;102653.19;;;14.27;100.00
12247;BME280;6186;52.022;4.692;2023-09-30T06:28:24;102659.31;;;14.33;100.00
12247;BME280;6186;52.022;4.692;2023-09-30T06:30:49;102676.06;;;14.35;100.00
12247;BME280;6186;52.022;4.692;2023-09-30T06:33:14;102679.59;;;14.36;100.00
12247;BME280;6186;52.022;4.692;2023-09-30T06:35:41;102677.78;;;14.39;100.00
12247;BME280;6186;52.022;4.692;2023-09-30T06:38:06;102683.06;;;14.41;100.00
12247;BME280;6186;52.022;4.692;2023-09-30T06:40:31;102680.41;;;14.44;100.00
12247;BME280;6186;52.022;4.692;2023-09-30T06:42:56;102674.19;;;14.45;100.00
12247;BME280;6186;52.022;4.692;2023-09-30T06:45:21;102652.28;;;14.32;100.00
12247;BME280;6186;52.022;4.692;2023-09-30T06:47:47;102676.78;;;14.49;100.00
12247;BME280;6186;52.022;4.692;2023-09-30T06:50:12;102687.34;;;14.52;100.00
12247;BME280;6186;52.022;4.692;2023-09-30T06:52:39;102686.47;;;14.52;100.00
12247;BME280;6186;52.022;4.692;2023-09-30T06:55:06;102686.50;;;14.49;100.00
12247;BME280;6186;52.022;4.692;2023-09-30T06:57:36;102696.22;;;14.51;100.00
12247;BME280;6186;52.022;4.692;2023-09-30T07:00:14;102703.25;;;14.52;100.00
12247;BME280;6186;52.022;4.692;2023-09-30T07:02:40;102697.94;;;14.52;100.00
12247;BME280;6186;52.022;4.692;2023-09-30T07:05:14;102689.97;;;14.55;100.00
12247;BME280;6186;52.022;4.692;2023-09-30T07:07:43;102698.69;;;14.63;100.00
12247;BME280;6186;52.022;4.692;2023-09-30T07:10:09;102711.88;;;14.69;100.00
12247;BME280;6186;52.022;4.692;2023-09-30T07:12:34;102718.84;;;14.76;100.00
12247;BME280;6186;52.022;4.692;2023-09-30T07:14:59;102713.50;;;14.81;100.00
12247;BME280;6186;52.022;4.692;2023-09-30T07:17:24;102723.16;;;14.86;100.00
12247;BME280;6186;52.022;4.692;2023-09-30T07:19:50;102721.34;;;14.90;100.00
12247;BME280;6186;52.022;4.692;2023-09-30T07:22:15;102718.66;;;14.91;100.00
12247;BME280;6186;52.022;4.692;2023-09-30T07:24:40;102723.03;;;14.95;100.00
12247;BME280;6186;52.022;4.692;2023-09-30T07:27:05;102737.13;;;15.00;100.00
12247;BME280;6186;52.022;4.692;2023-09-30T07:29:30;102730.91;;;15.01;100.00
12247;BME280;6186;52.022;4.692;2023-09-30T07:31:56;102732.69;;;15.02;100.00
12247;BME280;6186;52.022;4.692;2023-09-30T07:34:21;102742.34;;;15.05;100.00
12247;BME280;6186;52.022;4.692;2023-09-30T07:36:46;102731.72;;;15.06;100.00
12247;BME280;6186;52.022;4.692;2023-09-30T07:39:11;102734.28;;;15.13;100.00
12247;BME280;6186;52.022;4.692;2023-09-30T07:41:37;102738.63;;;15.20;100.00
12247;BME280;6186;52.022;4.692;2023-09-30T07:44:02;102733.25;;;15.24;100.00
12247;BME280;6186;52.022;4.692;2023-09-30T07:46:27;102728.69;;;15.34;100.00
12247;BME280;6186;52.022;4.692;2023-09-30T07:48:52;102730.34;;;15.39;100.00
12247;BME280;6186;52.022;4.692;2023-09-30T07:51:18;102721.50;;;15.39;100.00
12247;BME280;6186;52.022;4.692;2023-09-30T07:53:43;102730.28;;;15.47;100.00
12247;BME280;6186;52.022;4.692;2023-09-30T07:56:08;102731.09;;;15.52;100.00
12247;BME280;6186;52.022;4.692;2023-09-30T07:58:33;102723.09;;;15.55;100.00
12247;BME280;6186;52.022;4.692;2023-09-30T08:00:58;102707.94;;;15.60;100.00
12247;BME280;6186;52.022;4.692;2023-09-30T08:03:24;102709.66;;;15.64;100.00
12247;BME280;6186;52.022;4.692;2023-09-30T08:05:49;102707.84;;;15.66;100.00
12247;BME280;6186;52.022;4.692;2023-09-30T08:08:14;102695.34;;;15.74;100.00
12247;BME280;6186;52.022;4.692;2023-09-30T08:10:39;102693.47;;;15.79;100.00
12247;BME280;6186;52.022;4.692;2023-09-30T08:13:05;102689.78;;;15.86;100.00
12247;BME280;6186;52.022;4.692;2023-09-30T08:15:30;102691.44;;;15.94;100.00
12247;BME280;6186;52.022;4.692;2023-09-30T08:17:55;102699.34;;;15.99;100.00
12247;BME280;6186;52.022;4.692;2023-09-30T08:20:20;102708.09;;;16.04;100.00
12247;BME280;6186;52.022;4.692;2023-09-30T08:22:46;102711.53;;;16.09;100.00
12247;BME280;6186;52.022;4.692;2023-09-30T08:25:11;102713.19;;;16.16;100.00
12247;BME280;6186;52.022;4.692;2023-09-30T08:27:37;102707.72;;;16.24;100.00
12247;BME280;6186;52.022;4.692;2023-09-30T08:30:03;102697.78;;;16.33;100.00
12247;BME280;6186;52.022;4.692;2023-09-30T08:32:28;102689.56;;;16.45;100.00
12247;BME280;6186;52.022;4.692;2023-09-30T08:34:53;102685.81;;;16.57;100.00
12247;BME280;6186;52.022;4.692;2023-09-30T08:37:18;102705.81;;;16.76;100.00
12247;BME280;6186;52.022;4.692;2023-09-30T08:39:44;102711.53;;;16.98;100.00
12247;BME280;6186;52.022;4.692;2023-09-30T08:42:10;102711.06;;;17.20;100.00
12247;BME280;6186;52.022;4.692;2023-09-30T08:44:37;102697.19;;;17.43;100.00
12247;BME280;6186;52.022;4.692;2023-09-30T08:47:02;102707.88;;;17.78;100.00
12247;BME280;6186;52.022;4.692;2023-09-30T08:49:28;102714.25;;;18.06;100.00
12247;BME280;6186;52.022;4.692;2023-09-30T08:51:55;102730.31;;;18.37;100.00
12247;BME280;6186;52.022;4.692;2023-09-30T08:54:23;102735.53;;;18.73;100.00
12247;BME280;6186;52.022;4.692;2023-09-30T08:56:49;102744.19;;;19.11;100.00
12247;BME280;6186;52.022;4.692;2023-09-30T08:59:14;102750.22;;;19.46;100.00
12247;BME280;6186;52.022;4.692;2023-09-30T09:01:40;102743.63;;;19.84;100.00
12247;BME280;6186;52.022;4.692;2023-09-30T09:04:06;102752.47;;;20.12;100.00
12247;BME280;6186;52.022;4.692;2023-09-30T09:06:32;102753.53;;;20.34;100.00
12247;BME280;6186;52.022;4.692;2023-09-30T09:09:15;102766.28;;;20.51;100.00
12247;BME280;6186;52.022;4.692;2023-09-30T09:11:41;102774.38;;;20.49;100.00
12247;BME280;6186;52.022;4.692;2023-09-30T09:14:06;102780.03;;;20.40;100.00
12247;BME280;6186;52.022;4.692;2023-09-30T09:16:31;102783.16;;;20.28;100.00
12247;BME280;6186;52.022;4.692;2023-09-30T09:18:57;102788.94;;;20.15;100.00
12247;BME280;6186;52.022;4.692;2023-09-30T09:21:22;102779.41;;;20.06;100.00
12247;BME280;6186;52.022;4.692;2023-09-30T09:23:49;102778.56;;;20.32;100.00
12247;BME280;6186;52.022;4.692;2023-09-30T09:26:28;102768.59;;;20.85;100.00
12247;BME280;6186;52.022;4.692;2023-09-30T09:29:02;102770.31;;;21.33;100.00
12247;BME280;6186;52.022;4.692;2023-09-30T09:31:35;102769.59;;;21.73;100.00
12247;BME280;6186;52.022;4.692;2023-09-30T09:34:02;102778.75;;;22.11;100.00
12247;BME280;6186;52.022;4.692;2023-09-30T09:36:42;102772.47;;;22.32;100.00
12247;BME280;6186;52.022;4.692;2023-09-30T09:39:08;102780.91;;;22.65;100.00
12247;BME280;6186;52.022;4.692;2023-09-30T09:41:49;102777.56;;;22.98;100.00
12247;BME280;6186;52.022;4.692;2023-09-30T09:44:15;102778.47;;;23.36;100.00
12247;BME280;6186;52.022;4.692;2023-09-30T09:46:40;102775.19;;;23.67;100.00
12247;BME280;6186;52.022;4.692;2023-09-30T09:49:06;102775.78;;;23.90;100.00
12247;BME280;6186;52.022;4.692;2023-09-30T09:51:32;102778.31;;;24.12;100.00
12247;BME280;6186;52.022;4.692;2023-09-30T09:53:57;102780.22;;;24.27;100.00
12247;BME280;6186;52.022;4.692;2023-09-30T09:56:22;102786.22;;;24.49;100.00
12247;BME280;6186;52.022;4.692;2023-09-30T09:58:49;102780.44;;;24.74;100.00
12247;BME280;6186;52.022;4.692;2023-09-30T10:01:14;102768.69;;;24.92;100.00
12247;BME280;6186;52.022;4.692;2023-09-30T10:03:40;102760.59;;;24.92;100.00
12247;BME280;6186;52.022;4.692;2023-09-30T10:06:05;102766.88;;;25.08;100.00
12247;BME280;6186;52.022;4.692;2023-09-30T10:08:34;102764.28;;;25.22;100.00
12247;BME280;6186;52.022;4.692;2023-09-30T10:11:00;102762.16;;;25.44;100.00
12247;BME280;6186;52.022;4.692;2023-09-30T10:13:52;102753.75;;;25.80;100.00
12247;BME280;6186;52.022;4.692;2023-09-30T10:16:46;102752.03;;;26.24;100.00
12247;BME280;6186;52.022;4.692;2023-09-30T10:19:16;102743.78;;;26.41;100.00
12247;BME280;6186;52.022;4.692;2023-09-30T10:24:40;102736.13;;;26.48;100.00
12247;BME280;6186;52.022;4.692;2023-09-30T10:29:46;102739.97;;;24.91;100.00
12247;BME280;6186;52.022;4.692;2023-09-30T10:32:11;102738.91;;;24.78;100.00
12247;BME280;6186;52.022;4.692;2023-09-30T10:34:37;102737.03;;;25.27;100.00
12247;BME280;6186;52.022;4.692;2023-09-30T10:37:20;102740.19;;;25.81;100.00
12247;BME280;6186;52.022;4.692;2023-09-30T10:39:57;102734.31;;;26.34;100.00
12247;BME280;6186;52.022;4.692;2023-09-30T10:42:48;102741.91;;;26.28;100.00
12247;BME280;6186;52.022;4.692;2023-09-30T10:50:56;102738.34;;;25.04;100.00
12247;BME280;6186;52.022;4.692;2023-09-30T10:53:22;102737.19;;;24.77;100.00
12247;BME280;6186;52.022;4.692;2023-09-30T10:55:54;102735.09;;;24.65;100.00
12247;BME280;6186;52.022;4.692;2023-09-30T10:58:20;102736.94;;;24.97;100.00
12247;BME280;6186;52.022;4.692;2023-09-30T11:00:55;102730.28;;;25.19;100.00
12247;BME280;6186;52.022;4.692;2023-09-30T11:03:23;102730.72;;;24.79;100.00
12247;BME280;6186;52.022;4.692;2023-09-30T11:05:48;102735.56;;;24.23;100.00
12247;BME280;6186;52.022;4.692;2023-09-30T11:08:15;102736.56;;;23.68;100.00
12247;BME280;6186;52.022;4.692;2023-09-30T11:10:48;102731.09;;;23.52;100.00
12247;BME280;6186;52.022;4.692;2023-09-30T11:13:13;102727.63;;;23.50;100.00
12247;BME280;6186;52.022;4.692;2023-09-30T11:15:39;102721.56;;;23.26;100.00
12247;BME280;6186;52.022;4.692;2023-09-30T11:20:39;102692.38;;;22.82;100.00
12247;BME280;6186;52.022;4.692;2023-09-30T11:23:04;102688.63;;;22.67;100.00
12247;BME280;6186;52.022;4.692;2023-09-30T11:25:34;102712.22;;;23.16;100.00
12247;BME280;6186;52.022;4.692;2023-09-30T11:28:17;102713.28;;;23.85;100.00
12247;BME280;6186;52.022;4.692;2023-09-30T11:30:56;102724.00;;;24.21;100.00
12247;BME280;6186;52.022;4.692;2023-09-30T11:33:22;102726.13;;;24.32;100.00
12247;BME280;6186;52.022;4.692;2023-09-30T11:36:03;102729.22;;;24.41;100.00
12247;BME280;6186;52.022;4.692;2023-09-30T11:38:29;102721.59;;;24.15;100.00
12247;BME280;6186;52.022;4.692;2023-09-30T11:41:02;102722.59;;;23.78;100.00
12247;BME280;6186;52.022;4.692;2023-09-30T11:43:28;102693.97;;;23.23;100.00
12247;BME280;6186;52.022;4.692;2023-09-30T11:46:03;102723.13;;;23.32;100.00
12247;BME280;6186;52.022;4.692;2023-09-30T11:48:29;102724.97;;;23.31;100.00
12247;BME280;6186;52.022;4.692;2023-09-30T11:50:54;102726.50;;;23.17;100.00
12247;BME280;6186;52.022;4.692;2023-09-30T11:53:20;102722.94;;;22.98;100.00
12247;BME280;6186;52.022;4.692;2023-09-30T11:55:45;102708.22;;;22.88;100.00
12247;BME280;6186;52.022;4.692;2023-09-30T11:58:10;102702.19;;;23.01;100.00
12247;BME280;6186;52.022;4.692;2023-09-30T12:00:36;102688.44;;;23.26;100.00
12247;BME280;6186;52.022;4.692;2023-09-30T12:03:01;102685.72;;;23.63;100.00
12247;BME280;6186;52.022;4.692;2023-09-30T12:05:27;102693.72;;;23.99;100.00
12247;BME280;6186;52.022;4.692;2023-09-30T12:07:52;102685.41;;;24.38;100.00
12247;BME280;6186;52.022;4.692;2023-09-30T12:10:17;102673.13;;;24.82;100.00
12247;BME280;6186;52.022;4.692;2023-09-30T12:12:42;102694.28;;;25.05;100.00
12247;BME280;6186;52.022;4.692;2023-09-30T12:15:08;102685.91;;;24.94;100.00
12247;BME280;6186;52.022;4.692;2023-09-30T12:17:33;102683.19;;;24.78;100.00
12247;BME280;6186;52.022;4.692;2023-09-30T12:19:58;102678.50;;;24.82;100.00
12247;BME280;6186;52.022;4.692;2023-09-30T12:22:23;102687.41;;;24.99;100.00
12247;BME280;6186;52.022;4.692;2023-09-30T12:24:49;102697.41;;;25.13;100.00
12247;BME280;6186;52.022;4.692;2023-09-30T12:27:14;102690.88;;;25.33;100.00
12247;BME280;6186;52.022;4.692;2023-09-30T12:29:39;102680.69;;;25.53;100.00
12247;BME280;6186;52.022;4.692;2023-09-30T12:32:04;102686.28;;;25.50;100.00
12247;BME280;6186;52.022;4.692;2023-09-30T12:34:29;102685.00;;;25.42;100.00
12247;BME280;6186;52.022;4.692;2023-09-30T12:36:55;102689.38;;;25.27;100.00
12247;BME280;6186;52.022;4.692;2023-09-30T12:39:20;102681.06;;;25.16;100.00
12247;BME280;6186;52.022;4.692;2023-09-30T12:41:45;102688.88;;;25.21;100.00
12247;BME280;6186;52.022;4.692;2023-09-30T12:44:10;102690.19;;;25.29;100.00
12247;BME280;6186;52.022;4.692;2023-09-30T12:46:37;102687.22;;;25.34;100.00
12247;BME280;6186;52.022;4.692;2023-09-30T12:49:06;102682.00;;;25.31;100.00
12247;BME280;6186;52.022;4.692;2023-09-30T12:51:33;102684.63;;;25.32;100.00
12247;BME280;6186;52.022;4.692;2023-09-30T12:53:59;102681.50;;;25.24;100.00
12247;BME280;6186;52.022;4.692;2023-09-30T12:56:24;102674.53;;;25.04;100.00
12247;BME280;6186;52.022;4.692;2023-09-30T12:58:50;102666.44;;;24.89;100.00